Jayton, Texas
Current Conditions -  °F | °C
As of 9:15 PM on Wednesday 22 Oct 2014 (Local Time) from KSNK Reporting Station
Scattered Clouds Scattered Clouds  
Wind Chill: 16°   Ceiling: Unl
Heat Index: 16°   Visibility: 10mi
Dew Point: 14°   Wind: 8mph
Humidity: 87%   Direction: 140°SE
Pressure: 30.13"   Gusts: NA
Location:  33.25°N, 100.57°W
Report Text: KSNK 230215Z AUTO 14007KT 10SM SCT120 17/14 A3013 RMK AO2 T01650144
Loading
Personal Weather Stations






























Interactive Weather Map
Tropical Storm Tracking
New forecast layout! Learn more

10-Day Weather Forecast

Advertisements
Track Severe Weather on mobile